Time;durP1;ratioP1;P1;durP2;ratioP2;P2;SDS_P1;SDS_P2;PMS_P1;PMS_P2;Temp;Humidity;BMP_temperature;BMP_pressure;BME280_temperature;BME280_humidity;BME280_pressure;Samples;Min_cycle;Max_cycle;Signal;HPM_P1;HPM_P2
2022/01/25 00:31:04;;;;;;;66.35;27.38;;;;;;;;;;5068218;28;20114;-77
2022/01/25 00:33:31;;;;;;;65.93;27.30;;;;;;;;;;5067079;28;20055;-77
2022/01/25 00:35:58;;;;;;;69.43;28.67;;;;;;;;;;5051111;28;20036;-77
2022/01/25 00:38:24;;;;;;;68.68;27.75;;;;;;;;;;5066931;28;20048;-77
2022/01/25 00:40:50;;;;;;;66.70;28.00;;;;;;;;;;5067291;28;20124;-77
2022/01/25 00:43:16;;;;;;;66.30;27.92;;;;;;;;;;5067118;28;20044;-77
2022/01/25 00:45:42;;;;;;;65.55;27.30;;;;;;;;;;5067844;28;20503;-77
2022/01/25 00:48:18;;;;;;;65.78;28.58;;;;;;;;;;5067398;28;20033;-77
2022/01/25 00:50:44;;;;;;;64.00;27.97;;;;;;;;;;5067480;28;20527;-77
2022/01/25 00:55:54;;;;;;;69.28;29.30;;;;;;;;;;5067080;28;20049;-77
2022/01/25 00:58:20;;;;;;;68.43;28.60;;;;;;;;;;5066804;28;20053;-77
2022/01/25 01:00:46;;;;;;;66.57;28.30;;;;;;;;;;5070060;28;20047;-77
2022/01/25 01:03:12;;;;;;;66.95;28.65;;;;;;;;;;5070834;28;20526;-77
2022/01/25 01:05:39;;;;;;;63.95;27.67;;;;;;;;;;5053752;28;20543;-77
2022/01/25 01:08:06;;;;;;;68.43;29.42;;;;;;;;;;5053745;28;20051;-77
2022/01/25 01:10:32;;;;;;;65.05;28.23;;;;;;;;;;5071382;28;20093;-77
2022/01/25 01:29:06;;;;;;;70.40;28.40;;;;;;;;;;5070223;28;20044;-77
2022/01/25 01:31:56;;;;;;;65.32;27.75;;;;;;;;;;5070159;28;20048;-77
2022/01/25 01:42:36;;;;;;;62.40;27.50;;;;;;;;;;5070724;28;20064;-77
2022/01/25 01:47:40;;;;;;;69.47;28.30;;;;;;;;;;5069766;28;20565;-77
2022/01/25 01:50:14;;;;;;;69.75;28.83;;;;;;;;;;5070102;28;20036;-77
2022/01/25 01:52:40;;;;;;;71.95;29.17;;;;;;;;;;5069461;28;20049;-77
2022/01/25 01:55:07;;;;;;;63.08;26.58;;;;;;;;;;5052948;28;20052;-77
2022/01/25 01:57:33;;;;;;;68.07;28.40;;;;;;;;;;5069214;28;20131;-77
2022/01/25 01:59:59;;;;;;;65.80;27.90;;;;;;;;;;5069469;28;20052;-75
2022/01/25 02:02:26;;;;;;;68.10;28.13;;;;;;;;;;5069142;28;20045;-77
2022/01/25 02:04:52;;;;;;;67.47;27.35;;;;;;;;;;5069563;28;20040;-77
2022/01/25 02:07:18;;;;;;;65.22;27.73;;;;;;;;;;5069149;28;20040;-77
2022/01/25 02:09:44;;;;;;;64.78;27.80;;;;;;;;;;5052988;28;20040;-77
2022/01/25 02:12:10;;;;;;;67.85;28.48;;;;;;;;;;5069643;28;20147;-77
2022/01/25 02:14:40;;;;;;;67.57;27.42;;;;;;;;;;5068569;28;20102;-77
2022/01/25 02:17:53;;;;;;;68.57;28.17;;;;;;;;;;5069687;28;20513;-77
2022/01/25 02:22:55;;;;;;;68.63;29.17;;;;;;;;;;5068957;28;20086;-77
2022/01/25 02:25:21;;;;;;;65.75;27.80;;;;;;;;;;5068922;28;20037;-77
2022/01/25 02:27:48;;;;;;;67.40;28.25;;;;;;;;;;5068656;28;20119;-77
2022/01/25 02:30:14;;;;;;;68.68;27.73;;;;;;;;;;5069406;28;20048;-77
2022/01/25 02:32:40;;;;;;;67.25;28.33;;;;;;;;;;5068683;28;20063;-77
2022/01/25 02:35:06;;;;;;;71.32;28.15;;;;;;;;;;5069257;28;20043;-77
2022/01/25 02:37:32;;;;;;;67.45;28.17;;;;;;;;;;5068541;28;20079;-78
2022/01/25 02:39:58;;;;;;;66.05;28.88;;;;;;;;;;5068958;28;20072;-77
2022/01/25 02:42:25;;;;;;;68.32;28.85;;;;;;;;;;5068634;28;20037;-77
2022/01/25 02:44:52;;;;;;;71.30;30.42;;;;;;;;;;5068866;28;20033;-77
2022/01/25 02:50:03;;;;;;;72.13;30.15;;;;;;;;;;5067899;28;20122;-77
2022/01/25 02:52:29;;;;;;;66.85;28.40;;;;;;;;;;5068375;28;20052;-77
2022/01/25 02:54:56;;;;;;;70.93;30.35;;;;;;;;;;5068735;28;20094;-77
2022/01/25 02:57:22;;;;;;;66.60;27.58;;;;;;;;;;5051658;28;20036;-77
2022/01/25 02:59:49;;;;;;;69.97;29.80;;;;;;;;;;5068521;28;20052;-77
2022/01/25 03:02:15;;;;;;;75.40;30.33;;;;;;;;;;5063934;28;20102;-77
2022/01/25 03:04:41;;;;;;;70.40;29.17;;;;;;;;;;5067372;28;20085;-77
2022/01/25 03:07:08;;;;;;;72.00;30.20;;;;;;;;;;5067248;28;20496;-77
2022/01/25 03:09:34;;;;;;;76.75;30.40;;;;;;;;;;5068290;28;20495;-77
2022/01/25 03:12:04;;;;;;;73.00;29.85;;;;;;;;;;5052113;28;20032;-77
2022/01/25 03:14:33;;;;;;;71.38;29.52;;;;;;;;;;5051424;28;20045;-77
2022/01/25 03:22:05;;;;;;;69.85;29.77;;;;;;;;;;5068112;28;20040;-77
2022/01/25 03:24:31;;;;;;;72.70;29.55;;;;;;;;;;5067356;28;20154;-77
2022/01/25 03:26:57;;;;;;;67.47;28.13;;;;;;;;;;5049009;28;20044;-77
2022/01/25 03:29:24;;;;;;;69.07;28.70;;;;;;;;;;5048034;28;20552;-77
2022/01/25 03:31:50;;;;;;;68.88;29.65;;;;;;;;;;5031329;28;20037;-77
2022/01/25 03:34:16;;;;;;;73.32;29.35;;;;;;;;;;5032002;28;20519;-77
2022/01/25 03:36:42;;;;;;;66.30;28.48;;;;;;;;;;5031499;28;20052;-77
2022/01/25 03:39:09;;;;;;;74.57;28.92;;;;;;;;;;5048298;28;20079;-76
2022/01/25 03:41:35;;;;;;;68.88;29.55;;;;;;;;;;5047673;28;20118;-77
2022/01/25 03:44:02;;;;;;;67.70;28.45;;;;;;;;;;5048242;28;20396;-77
2022/01/25 03:46:39;;;;;;;70.47;28.20;;;;;;;;;;5030705;28;20102;-77
2022/01/25 03:51:50;;;;;;;70.25;27.60;;;;;;;;;;5060739;28;20466;-77
2022/01/25 03:54:16;;;;;;;65.35;26.58;;;;;;;;;;5068035;28;20040;-77
2022/01/25 03:56:43;;;;;;;64.68;27.70;;;;;;;;;;5068300;28;20048;-77
2022/01/25 03:59:09;;;;;;;69.72;28.27;;;;;;;;;;5067646;28;20048;-77
2022/01/25 04:01:35;;;;;;;65.82;28.92;;;;;;;;;;5067146;28;20041;-77
2022/01/25 04:04:12;;;;;;;67.68;29.05;;;;;;;;;;5067597;28;20033;-77
2022/01/25 04:06:39;;;;;;;67.90;27.40;;;;;;;;;;5067719;28;20499;-77
2022/01/25 04:09:06;;;;;;;69.88;28.50;;;;;;;;;;5034460;28;20036;-77
2022/01/25 04:11:33;;;;;;;67.07;27.55;;;;;;;;;;5067196;28;20524;-77
2022/01/25 04:13:59;;;;;;;65.22;27.23;;;;;;;;;;5067705;28;20053;-77
2022/01/25 04:16:33;;;;;;;72.03;27.52;;;;;;;;;;5067380;28;20050;-77
2022/01/25 04:19:20;;;;;;;66.88;27.60;;;;;;;;;;5067526;28;20056;-77
2022/01/25 04:25:03;;;;;;;67.13;27.65;;;;;;;;;;5056565;28;20041;-77
2022/01/25 04:27:30;;;;;;;66.57;27.48;;;;;;;;;;5067042;28;20059;-77
2022/01/25 04:29:56;;;;;;;66.32;26.63;;;;;;;;;;5068929;28;20403;-78
2022/01/25 04:49:30;;;;;;;71.80;27.90;;;;;;;;;;5056633;28;20048;-77
2022/01/25 05:02:16;;;;;;;66.70;27.60;;;;;;;;;;5067998;28;20119;-77
2022/01/25 05:04:51;;;;;;;68.43;27.35;;;;;;;;;;5054245;28;20051;-77
2022/01/25 05:07:31;;;;;;;64.07;26.60;;;;;;;;;;5069497;28;20041;-77
2022/01/25 05:09:59;;;;;;;62.75;26.67;;;;;;;;;;5070570;28;20049;-77
2022/01/25 05:12:45;;;;;;;65.55;25.50;;;;;;;;;;5070271;28;20055;-77
2022/01/25 05:15:26;;;;;;;68.03;26.40;;;;;;;;;;5070510;28;20524;-77
2022/01/25 05:19:02;;;;;;;68.00;26.35;;;;;;;;;;5070835;28;20049;-78
2022/01/25 05:23:32;;;;;;;67.07;26.45;;;;;;;;;;5069993;28;20036;-77
2022/01/25 05:25:58;;;;;;;66.55;27.00;;;;;;;;;;5054043;28;20072;-77
2022/01/25 05:28:24;;;;;;;66.70;27.15;;;;;;;;;;5070026;28;20472;-77
2022/01/25 05:30:50;;;;;;;68.32;27.85;;;;;;;;;;5053807;28;20359;-77
2022/01/25 05:33:17;;;;;;;67.57;26.55;;;;;;;;;;5070143;28;20439;-77
2022/01/25 05:35:43;;;;;;;68.60;26.42;;;;;;;;;;5070628;28;20469;-78
2022/01/25 05:38:09;;;;;;;66.85;27.25;;;;;;;;;;5070257;28;20048;-77
2022/01/25 05:40:47;;;;;;;66.63;26.05;;;;;;;;;;5069627;28;20154;-77
2022/01/25 05:48:23;;;;;;;64.55;26.40;;;;;;;;;;5069479;28;20101;-78
2022/01/25 05:50:49;;;;;;;62.97;26.15;;;;;;;;;;5069664;28;20044;-77
2022/01/25 05:53:15;;;;;;;69.63;26.90;;;;;;;;;;5070203;28;20044;-77
2022/01/25 05:55:41;;;;;;;67.80;27.08;;;;;;;;;;5069210;28;20044;-77
2022/01/25 05:58:07;;;;;;;65.47;26.67;;;;;;;;;;5069481;28;20040;-77
2022/01/25 06:00:33;;;;;;;68.25;27.25;;;;;;;;;;5069153;28;20527;-78
2022/01/25 06:03:01;;;;;;;66.35;27.25;;;;;;;;;;5069698;28;20082;-77
2022/01/25 06:05:27;;;;;;;67.38;26.55;;;;;;;;;;5069311;28;20130;-77
2022/01/25 06:07:53;;;;;;;66.07;27.05;;;;;;;;;;5053328;28;20040;-78
2022/01/25 06:10:22;;;;;;;67.60;25.98;;;;;;;;;;5068641;28;20047;-77
2022/01/25 06:12:48;;;;;;;64.95;25.63;;;;;;;;;;5070805;28;20556;-77
2022/01/25 06:15:14;;;;;;;69.03;27.58;;;;;;;;;;5070711;28;20515;-77
2022/01/25 06:17:40;;;;;;;69.00;26.90;;;;;;;;;;5068987;28;20044;-78
2022/01/25 06:20:07;;;;;;;66.30;26.13;;;;;;;;;;5068966;28;20407;-77
2022/01/25 06:22:33;;;;;;;67.50;25.80;;;;;;;;;;5068484;28;20040;-77
2022/01/25 06:25:00;;;;;;;63.47;25.98;;;;;;;;;;5069086;28;20044;-77
2022/01/25 06:27:26;;;;;;;67.30;26.73;;;;;;;;;;5068183;28;20040;-77
2022/01/25 06:29:52;;;;;;;68.75;26.40;;;;;;;;;;5068813;28;20051;-77
2022/01/25 06:32:19;;;;;;;64.82;27.20;;;;;;;;;;5068830;28;20052;-77
2022/01/25 06:34:46;;;;;;;67.53;26.85;;;;;;;;;;5069431;28;20050;-77
2022/01/25 06:37:12;;;;;;;62.33;25.08;;;;;;;;;;5069068;28;20119;-77
2022/01/25 06:39:39;;;;;;;65.15;26.48;;;;;;;;;;5068366;28;20254;-77
2022/01/25 06:42:05;;;;;;;67.38;27.13;;;;;;;;;;5068914;28;20124;-77
2022/01/25 06:44:34;;;;;;;67.32;26.38;;;;;;;;;;5069649;28;20045;-77
2022/01/25 06:47:00;;;;;;;66.40;25.75;;;;;;;;;;5052945;28;20111;-77
2022/01/25 06:49:26;;;;;;;66.78;27.77;;;;;;;;;;5068336;28;20040;-78
2022/01/25 06:51:52;;;;;;;62.17;24.48;;;;;;;;;;5068508;28;20052;-77
2022/01/25 06:54:18;;;;;;;63.70;26.55;;;;;;;;;;5068205;28;20036;-77
2022/01/25 06:56:44;;;;;;;72.47;26.77;;;;;;;;;;5068612;28;20575;-77
2022/01/25 06:59:11;;;;;;;63.85;26.48;;;;;;;;;;5051539;28;20045;-77
2022/01/25 07:01:39;;;;;;;65.18;25.10;;;;;;;;;;5051368;28;20923;-78
2022/01/25 07:04:05;;;;;;;66.82;26.00;;;;;;;;;;5068467;28;20043;-77
2022/01/25 07:06:31;;;;;;;62.85;25.30;;;;;;;;;;5051096;28;20128;-77
2022/01/25 07:09:00;;;;;;;68.05;26.67;;;;;;;;;;5052091;28;20051;-77
2022/01/25 07:11:26;;;;;;;65.57;26.25;;;;;;;;;;5051485;28;20520;-77
2022/01/25 07:13:52;;;;;;;65.90;25.40;;;;;;;;;;5068487;28;20048;-77
2022/01/25 07:16:18;;;;;;;62.40;24.77;;;;;;;;;;5068076;28;20052;-77
2022/01/25 07:18:44;;;;;;;59.95;24.60;;;;;;;;;;5052205;28;20044;-77
2022/01/25 07:21:10;;;;;;;68.53;25.85;;;;;;;;;;5067792;28;20040;-77
2022/01/25 07:23:36;;;;;;;61.60;24.98;;;;;;;;;;5067833;28;20087;-77
2022/01/25 07:26:03;;;;;;;68.25;26.40;;;;;;;;;;5068011;28;20036;-77
2022/01/25 07:28:29;;;;;;;63.67;25.95;;;;;;;;;;5067981;28;20040;-77
2022/01/25 07:30:55;;;;;;;70.25;26.30;;;;;;;;;;5067958;28;20052;-77
2022/01/25 07:33:21;;;;;;;61.75;24.85;;;;;;;;;;5067984;28;20486;-77
2022/01/25 07:35:47;;;;;;;67.15;25.55;;;;;;;;;;5051860;28;20476;-77
2022/01/25 07:38:17;;;;;;;62.58;25.55;;;;;;;;;;5068605;28;20156;-77
2022/01/25 07:40:44;;;;;;;70.60;27.20;;;;;;;;;;5068928;28;20075;-77
2022/01/25 07:43:10;;;;;;;67.07;26.45;;;;;;;;;;5051486;28;20179;-77
2022/01/25 07:45:36;;;;;;;68.45;26.30;;;;;;;;;;5067360;28;20037;-77
2022/01/25 07:48:06;;;;;;;64.47;24.40;;;;;;;;;;5051281;28;20492;-77
2022/01/25 07:50:33;;;;;;;71.32;25.63;;;;;;;;;;5067020;28;20047;-77
2022/01/25 07:52:59;;;;;;;65.50;25.73;;;;;;;;;;5068059;28;20131;-77
2022/01/25 07:55:25;;;;;;;66.28;25.67;;;;;;;;;;5067708;28;20390;-77
2022/01/25 07:57:51;;;;;;;69.15;26.08;;;;;;;;;;5068119;28;20094;-77
2022/01/25 08:00:17;;;;;;;64.95;26.20;;;;;;;;;;5051248;28;20127;-77
2022/01/25 08:02:46;;;;;;;68.85;25.90;;;;;;;;;;5050652;28;20045;-77
2022/01/25 08:05:13;;;;;;;69.63;25.30;;;;;;;;;;5067714;28;20041;-77
2022/01/25 08:07:40;;;;;;;74.18;26.83;;;;;;;;;;5068773;28;20041;-77
2022/01/25 08:10:06;;;;;;;63.40;24.42;;;;;;;;;;5071436;28;20418;-77
2022/01/25 08:12:32;;;;;;;71.22;26.58;;;;;;;;;;5072586;28;20045;-77
2022/01/25 08:15:00;;;;;;;66.80;26.10;;;;;;;;;;5072930;28;20049;-78
2022/01/25 08:17:26;;;;;;;69.88;27.10;;;;;;;;;;5071048;28;20123;-77
2022/01/25 08:19:52;;;;;;;64.60;26.05;;;;;;;;;;5072097;28;20097;-77
2022/01/25 08:22:18;;;;;;;68.78;26.63;;;;;;;;;;5071992;28;20502;-77
2022/01/25 08:24:45;;;;;;;71.93;25.65;;;;;;;;;;5054117;28;20036;-77
2022/01/25 08:27:11;;;;;;;72.68;26.20;;;;;;;;;;5071613;28;20123;-77
2022/01/25 08:29:38;;;;;;;68.28;25.63;;;;;;;;;;5071640;28;20129;-77
2022/01/25 08:32:04;;;;;;;68.28;26.58;;;;;;;;;;5071000;28;20059;-77
2022/01/25 08:34:30;;;;;;;66.40;26.77;;;;;;;;;;5071049;28;20170;-77
2022/01/25 08:36:56;;;;;;;72.22;26.75;;;;;;;;;;5071210;28;20149;-77
2022/01/25 08:39:25;;;;;;;64.97;24.90;;;;;;;;;;5071546;28;20476;-77
2022/01/25 08:41:52;;;;;;;67.15;26.75;;;;;;;;;;5071072;28;20040;-77
2022/01/25 08:44:18;;;;;;;71.20;26.08;;;;;;;;;;5071089;28;20032;-77
2022/01/25 08:46:44;;;;;;;67.68;25.10;;;;;;;;;;5104894;28;20059;-77
2022/01/25 08:49:10;;;;;;;68.18;26.40;;;;;;;;;;5071289;28;20119;-77
2022/01/25 08:51:36;;;;;;;66.68;26.13;;;;;;;;;;5076412;28;20040;-77
2022/01/25 08:54:02;;;;;;;71.40;27.80;;;;;;;;;;5050635;28;20052;-77
2022/01/25 08:56:28;;;;;;;72.32;26.30;;;;;;;;;;5050749;28;20059;-76
2022/01/25 08:58:55;;;;;;;69.47;26.85;;;;;;;;;;5051409;28;20492;-77
2022/01/25 09:01:21;;;;;;;69.55;27.40;;;;;;;;;;5050232;28;20045;-77
2022/01/25 09:03:47;;;;;;;73.75;27.55;;;;;;;;;;5051275;28;20059;-77
2022/01/25 09:06:13;;;;;;;80.22;28.80;;;;;;;;;;5051159;28;20073;-77
2022/01/25 09:08:39;;;;;;;71.03;27.58;;;;;;;;;;5050843;28;20519;-77
2022/01/25 09:11:07;;;;;;;72.85;26.58;;;;;;;;;;5050827;28;20041;-77
2022/01/25 09:13:33;;;;;;;73.00;28.65;;;;;;;;;;5033334;28;20045;-77
2022/01/25 09:15:59;;;;;;;75.65;29.70;;;;;;;;;;5034311;28;20103;-77
2022/01/25 09:18:26;;;;;;;73.95;29.02;;;;;;;;;;5033714;28;20044;-77
2022/01/25 09:20:52;;;;;;;74.82;28.42;;;;;;;;;;5033451;28;20485;-77
2022/01/25 09:23:19;;;;;;;75.70;29.05;;;;;;;;;;5050470;28;20053;-77
2022/01/25 09:25:49;;;;;;;77.57;28.65;;;;;;;;;;5050817;28;20167;-77
2022/01/25 09:28:15;;;;;;;72.50;27.77;;;;;;;;;;5050809;28;20378;-77
2022/01/25 09:30:42;;;;;;;78.57;28.70;;;;;;;;;;5050234;28;20080;-77
2022/01/25 09:33:08;;;;;;;75.35;29.25;;;;;;;;;;5033594;28;20110;-77
2022/01/25 09:35:34;;;;;;;75.25;28.80;;;;;;;;;;5050114;28;20053;-77
2022/01/25 09:38:00;;;;;;;68.00;27.08;;;;;;;;;;5051587;28;20048;-77
2022/01/25 09:40:26;;;;;;;67.15;26.73;;;;;;;;;;5033690;28;20397;-77
2022/01/25 09:42:56;;;;;;;69.32;28.35;;;;;;;;;;5050160;28;20071;-78
2022/01/25 09:45:22;;;;;;;73.20;27.63;;;;;;;;;;5049720;28;20060;-78
2022/01/25 09:47:48;;;;;;;76.20;28.67;;;;;;;;;;5050953;28;20041;-77
2022/01/25 09:50:15;;;;;;;71.97;26.10;;;;;;;;;;5051092;28;20041;-77
2022/01/25 09:52:42;;;;;;;71.22;27.30;;;;;;;;;;5052434;28;20052;-77
2022/01/25 09:55:10;;;;;;;70.47;28.30;;;;;;;;;;5069777;28;20063;-77
2022/01/25 09:57:36;;;;;;;73.38;27.92;;;;;;;;;;5069415;28;20076;-77
2022/01/25 10:00:04;;;;;;;78.88;28.45;;;;;;;;;;5053090;28;20117;-77
2022/01/25 10:02:51;;;;;;;73.68;28.85;;;;;;;;;;5069599;28;20100;-77
2022/01/25 10:05:26;;;;;;;81.75;30.90;;;;;;;;;;5070008;28;20570;-77
2022/01/25 10:07:56;;;;;;;80.57;29.23;;;;;;;;;;5069934;28;20040;-77
2022/01/25 10:10:23;;;;;;;88.78;31.52;;;;;;;;;;5051987;28;20083;-77
2022/01/25 10:12:49;;;;;;;81.05;30.77;;;;;;;;;;5069114;28;20123;-77
2022/01/25 10:15:15;;;;;;;82.65;30.88;;;;;;;;;;5069425;28;20562;-78
2022/01/25 10:17:43;;;;;;;82.45;31.25;;;;;;;;;;5068984;28;20052;-77
2022/01/25 10:20:26;;;;;;;81.45;30.75;;;;;;;;;;5069342;28;20080;-78
2022/01/25 10:22:52;;;;;;;80.93;32.35;;;;;;;;;;5069334;28;20043;-77
2022/01/25 10:25:37;;;;;;;80.30;31.17;;;;;;;;;;5052847;28;20045;-77
2022/01/25 10:28:06;;;;;;;89.47;33.72;;;;;;;;;;5069151;28;20039;-77
2022/01/25 10:30:36;;;;;;;84.43;31.45;;;;;;;;;;5069205;28;20507;-77
2022/01/25 10:33:02;;;;;;;86.10;33.80;;;;;;;;;;5068268;28;20475;-77
2022/01/25 10:35:31;;;;;;;94.82;32.90;;;;;;;;;;5068776;28;20127;-77
2022/01/25 10:37:57;;;;;;;84.35;32.30;;;;;;;;;;5069156;28;20044;-77
2022/01/25 10:40:37;;;;;;;88.10;33.42;;;;;;;;;;5068708;28;20072;-77
2022/01/25 10:43:05;;;;;;;90.82;31.95;;;;;;;;;;5069885;28;20038;-77
2022/01/25 10:45:31;;;;;;;80.65;31.25;;;;;;;;;;5068732;28;20079;-77
2022/01/25 10:47:57;;;;;;;77.22;29.55;;;;;;;;;;5052287;28;20045;-77
2022/01/25 10:50:23;;;;;;;77.75;30.08;;;;;;;;;;5068137;28;20070;-77
2022/01/25 10:53:04;;;;;;;76.20;29.45;;;;;;;;;;5051929;28;20052;-77
2022/01/25 10:55:56;;;;;;;79.95;28.55;;;;;;;;;;5068391;28;20045;-77
2022/01/25 10:58:23;;;;;;;74.22;28.02;;;;;;;;;;5066443;28;20532;-77
2022/01/25 11:00:51;;;;;;;71.53;28.48;;;;;;;;;;5051972;28;20041;-77
2022/01/25 11:03:37;;;;;;;74.05;27.83;;;;;;;;;;5068486;28;20047;-77
2022/01/25 11:06:13;;;;;;;79.28;28.73;;;;;;;;;;5068777;28;20504;-77
2022/01/25 11:08:40;;;;;;;75.43;30.03;;;;;;;;;;5068212;28;20090;-77
2022/01/25 11:11:10;;;;;;;81.22;30.02;;;;;;;;;;5068576;28;20282;-77
2022/01/25 11:13:38;;;;;;;82.80;29.95;;;;;;;;;;5067819;28;20044;-77
2022/01/25 11:16:05;;;;;;;81.50;31.55;;;;;;;;;;5051979;28;20045;-77
2022/01/25 11:18:32;;;;;;;80.75;31.65;;;;;;;;;;5067755;28;20090;-77
2022/01/25 11:20:59;;;;;;;87.63;33.83;;;;;;;;;;5068041;28;20084;-77
2022/01/25 11:23:25;;;;;;;93.10;33.97;;;;;;;;;;5068501;28;20385;-77
2022/01/25 11:25:52;;;;;;;86.88;34.22;;;;;;;;;;5068184;28;20037;-77
2022/01/25 11:28:18;;;;;;;94.20;34.08;;;;;;;;;;5051757;28;20040;-77
2022/01/25 11:30:45;;;;;;;91.35;34.53;;;;;;;;;;5068003;28;20511;-77
2022/01/25 11:33:12;;;;;;;94.13;35.78;;;;;;;;;;5067987;28;20048;-77
2022/01/25 11:35:39;;;;;;;101.93;38.22;;;;;;;;;;5068082;28;20481;-77
2022/01/25 11:38:05;;;;;;;104.82;37.17;;;;;;;;;;5051828;28;20450;-77
2022/01/25 11:40:39;;;;;;;111.65;40.47;;;;;;;;;;5051252;28;20072;-77
2022/01/25 11:43:10;;;;;;;116.10;41.25;;;;;;;;;;5067400;28;20186;-77
2022/01/25 11:45:38;;;;;;;120.88;44.20;;;;;;;;;;5067306;28;20355;-77
2022/01/25 11:48:05;;;;;;;118.35;42.78;;;;;;;;;;5069464;28;20506;-77
2022/01/25 11:50:32;;;;;;;119.28;42.55;;;;;;;;;;5067437;28;20129;-77
2022/01/25 11:53:05;;;;;;;106.75;40.10;;;;;;;;;;5068102;28;20056;-77
2022/01/25 11:55:34;;;;;;;109.20;39.70;;;;;;;;;;5067601;28;20037;-77
2022/01/25 11:58:06;;;;;;;100.82;37.60;;;;;;;;;;5067917;28;20123;-77
2022/01/25 12:00:39;;;;;;;102.40;37.28;;;;;;;;;;5067625;28;20530;-77
2022/01/25 12:03:24;;;;;;;92.43;34.38;;;;;;;;;;5067852;28;20044;-77
2022/01/25 12:05:59;;;;;;;83.25;32.22;;;;;;;;;;5067618;28;20039;-77
2022/01/25 12:08:51;;;;;;;80.55;29.80;;;;;;;;;;5067288;28;20049;-77
2022/01/25 12:11:29;;;;;;;69.55;27.13;;;;;;;;;;5067827;28;20052;-77
2022/01/25 12:14:14;;;;;;;72.35;27.17;;;;;;;;;;5067445;28;20061;-77
2022/01/25 12:16:45;;;;;;;71.40;26.83;;;;;;;;;;5067436;28;20516;-77
2022/01/25 12:19:12;;;;;;;70.28;26.08;;;;;;;;;;5067497;28;20037;-77
2022/01/25 12:21:49;;;;;;;68.70;26.50;;;;;;;;;;5067005;28;20412;-77
2022/01/25 12:24:18;;;;;;;67.68;25.70;;;;;;;;;;5067939;28;20527;-77
2022/01/25 12:27:02;;;;;;;69.00;25.35;;;;;;;;;;5051017;28;20560;-77
2022/01/25 12:29:29;;;;;;;67.28;25.55;;;;;;;;;;5067265;28;20048;-77
2022/01/25 12:31:55;;;;;;;68.13;26.10;;;;;;;;;;5067553;28;20056;-77
2022/01/25 12:34:24;;;;;;;68.22;25.73;;;;;;;;;;5067045;28;20084;-77
2022/01/25 12:36:50;;;;;;;72.43;26.80;;;;;;;;;;5067440;28;20070;-77
2022/01/25 12:39:18;;;;;;;69.95;25.55;;;;;;;;;;5066987;28;20045;-77
2022/01/25 12:41:48;;;;;;;71.35;26.88;;;;;;;;;;5068118;28;20045;-77
2022/01/25 12:44:14;;;;;;;72.38;27.48;;;;;;;;;;5066929;28;20119;-77
2022/01/25 12:46:41;;;;;;;72.50;26.83;;;;;;;;;;5066770;28;20047;-77
2022/01/25 12:49:11;;;;;;;68.05;25.08;;;;;;;;;;5067619;28;20052;-77
2022/01/25 12:51:38;;;;;;;67.63;26.02;;;;;;;;;;5050041;28;20044;-77
2022/01/25 12:54:06;;;;;;;72.82;26.63;;;;;;;;;;5067405;28;20048;-77
2022/01/25 12:56:34;;;;;;;72.95;25.80;;;;;;;;;;5051626;28;20048;-77
2022/01/25 12:59:05;;;;;;;68.78;26.25;;;;;;;;;;5072174;28;20404;-78
2022/01/25 13:01:32;;;;;;;70.05;25.50;;;;;;;;;;5070314;28;20492;-77
2022/01/25 13:03:59;;;;;;;67.07;25.77;;;;;;;;;;5070873;28;20036;-77
2022/01/25 13:06:31;;;;;;;74.22;26.77;;;;;;;;;;5070622;28;20048;-77
2022/01/25 13:09:12;;;;;;;66.30;24.77;;;;;;;;;;5070771;28;20041;-77
2022/01/25 13:14:45;;;;;;;68.63;26.73;;;;;;;;;;5070351;28;20048;-77
2022/01/25 13:17:17;;;;;;;66.95;25.23;;;;;;;;;;5070470;28;20056;-77
2022/01/25 13:19:54;;;;;;;68.57;26.80;;;;;;;;;;5053491;28;20084;-77
2022/01/25 13:22:22;;;;;;;77.68;28.48;;;;;;;;;;5070250;28;20120;-77
2022/01/25 13:25:00;;;;;;;80.40;29.13;;;;;;;;;;5070842;28;20052;-77
2022/01/25 13:27:34;;;;;;;79.55;29.30;;;;;;;;;;5069972;28;20036;-77
2022/01/25 13:32:52;;;;;;;86.90;33.85;;;;;;;;;;5070082;28;20147;-77
2022/01/25 13:35:26;;;;;;;89.28;35.10;;;;;;;;;;5070285;28;20040;-78
2022/01/25 13:38:04;;;;;;;91.72;36.15;;;;;;;;;;5070206;28;20044;-78
2022/01/25 13:45:57;;;;;;;90.10;34.72;;;;;;;;;;5070239;28;20503;-77
2022/01/25 13:48:25;;;;;;;79.95;30.73;;;;;;;;;;5053015;28;20090;-77
2022/01/25 13:50:58;;;;;;;79.07;28.58;;;;;;;;;;5053055;28;20040;-77
2022/01/25 13:53:25;;;;;;;74.22;28.00;;;;;;;;;;5070428;28;20040;-77
2022/01/25 13:55:53;;;;;;;74.82;27.38;;;;;;;;;;5053344;28;20044;-77
2022/01/25 13:58:27;;;;;;;73.13;27.17;;;;;;;;;;5069944;28;20032;-77
2022/01/25 14:00:54;;;;;;;71.65;25.10;;;;;;;;;;5053357;28;20400;-77
2022/01/25 14:03:24;;;;;;;68.28;25.77;;;;;;;;;;5053151;28;20041;-78
2022/01/25 14:05:51;;;;;;;67.68;25.10;;;;;;;;;;5069823;28;20036;-77
2022/01/25 14:08:17;;;;;;;71.32;26.10;;;;;;;;;;5069664;28;20697;-77
2022/01/25 14:10:47;;;;;;;66.68;25.15;;;;;;;;;;5069589;28;20040;-77
2022/01/25 14:24:14;;;;;;;71.50;25.85;;;;;;;;;;5068857;28;20040;-78
2022/01/25 14:26:41;;;;;;;65.40;24.88;;;;;;;;;;5069409;28;20379;-77
2022/01/25 14:29:18;;;;;;;65.55;24.92;;;;;;;;;;5052803;28;20041;-77
2022/01/25 14:31:46;;;;;;;69.95;25.30;;;;;;;;;;5069049;28;20091;-77
2022/01/25 14:34:14;;;;;;;72.82;25.13;;;;;;;;;;5069719;28;20154;-77
2022/01/25 14:36:43;;;;;;;73.03;25.33;;;;;;;;;;5068815;28;20044;-77
2022/01/25 14:39:09;;;;;;;74.30;26.20;;;;;;;;;;5069782;28;20048;-78
2022/01/25 14:41:37;;;;;;;68.70;26.98;;;;;;;;;;5069135;28;20048;-78
2022/01/25 14:44:06;;;;;;;70.50;26.83;;;;;;;;;;5052442;28;20388;-78
2022/01/25 14:46:35;;;;;;;76.13;27.20;;;;;;;;;;5068533;28;20703;-78
2022/01/25 14:49:08;;;;;;;77.30;27.30;;;;;;;;;;5069074;28;20048;-77
2022/01/25 14:51:39;;;;;;;80.07;26.80;;;;;;;;;;5068445;28;20467;-77
2022/01/25 14:54:10;;;;;;;79.35;29.15;;;;;;;;;;5068764;28;20044;-78
2022/01/25 14:56:38;;;;;;;81.65;28.95;;;;;;;;;;5068448;28;20044;-77
2022/01/25 15:01:32;;;;;;;78.88;27.80;;;;;;;;;;5068209;28;20048;-77
2022/01/25 15:03:58;;;;;;;78.72;29.40;;;;;;;;;;5051861;28;20119;-78
2022/01/25 15:06:25;;;;;;;82.22;29.63;;;;;;;;;;5068612;28;20128;-77
2022/01/25 15:08:53;;;;;;;82.35;28.90;;;;;;;;;;5051589;28;20127;-78
2022/01/25 15:11:20;;;;;;;88.93;28.98;;;;;;;;;;5068362;28;20055;-77
2022/01/25 15:13:46;;;;;;;74.45;27.30;;;;;;;;;;5051797;28;20507;-77
2022/01/25 15:16:12;;;;;;;71.15;26.77;;;;;;;;;;5051298;28;20052;-77
2022/01/25 15:18:40;;;;;;;72.38;26.15;;;;;;;;;;5067229;28;20048;-77
2022/01/25 15:21:08;;;;;;;73.93;26.88;;;;;;;;;;5068477;28;20118;-77
2022/01/25 15:23:35;;;;;;;74.78;26.88;;;;;;;;;;5067952;28;20044;-77
2022/01/25 15:26:06;;;;;;;66.32;25.13;;;;;;;;;;5068064;28;20052;-77
2022/01/25 15:28:39;;;;;;;72.60;25.75;;;;;;;;;;5068027;28;20071;-77
2022/01/25 15:31:06;;;;;;;75.88;25.77;;;;;;;;;;5068108;28;20053;-77
2022/01/25 15:33:32;;;;;;;74.10;26.67;;;;;;;;;;5051348;28;20499;-77
2022/01/25 15:35:59;;;;;;;82.45;28.38;;;;;;;;;;5068036;28;20049;-77
2022/01/25 15:38:25;;;;;;;92.63;31.73;;;;;;;;;;5067968;28;20048;-77
2022/01/25 15:40:51;;;;;;;103.05;36.83;;;;;;;;;;5051034;28;20144;-77
2022/01/25 15:43:22;;;;;;;105.63;38.80;;;;;;;;;;5069283;28;20036;-77
2022/01/25 15:48:21;;;;;;;100.30;38.35;;;;;;;;;;5067928;28;20052;-77
2022/01/25 15:50:48;;;;;;;94.07;32.80;;;;;;;;;;5067787;28;20131;-77
2022/01/25 15:53:14;;;;;;;89.10;30.27;;;;;;;;;;5051220;28;20084;-77
2022/01/25 15:55:40;;;;;;;85.53;29.88;;;;;;;;;;5068759;28;20172;-77
2022/01/25 15:58:06;;;;;;;82.60;28.83;;;;;;;;;;5067829;28;20485;-77
2022/01/25 16:00:32;;;;;;;80.90;26.40;;;;;;;;;;5050907;28;20399;-77
2022/01/25 16:03:00;;;;;;;75.70;27.40;;;;;;;;;;5067971;28;20075;-77
2022/01/25 16:05:26;;;;;;;85.88;28.33;;;;;;;;;;5067810;28;20105;-77
2022/01/25 16:07:53;;;;;;;74.88;26.75;;;;;;;;;;5067439;28;20127;-77
2022/01/25 16:10:22;;;;;;;77.55;28.23;;;;;;;;;;5067706;28;20127;-77
2022/01/25 16:12:48;;;;;;;77.47;28.35;;;;;;;;;;5067576;28;20044;-77
2022/01/25 16:15:14;;;;;;;86.57;29.17;;;;;;;;;;5067512;28;20455;-77
2022/01/25 16:17:40;;;;;;;80.78;28.40;;;;;;;;;;5050892;28;20403;-77
2022/01/25 16:20:07;;;;;;;86.18;30.50;;;;;;;;;;5067629;28;20053;-77
2022/01/25 16:22:33;;;;;;;86.43;29.00;;;;;;;;;;5050664;28;20063;-77
2022/01/25 16:24:59;;;;;;;83.30;27.88;;;;;;;;;;5034464;28;20123;-77
2022/01/25 16:27:26;;;;;;;80.90;28.30;;;;;;;;;;5050676;28;20052;-77
2022/01/25 16:29:52;;;;;;;79.15;28.30;;;;;;;;;;5068854;28;20381;-77
2022/01/25 16:32:21;;;;;;;89.78;30.85;;;;;;;;;;5071629;28;20047;-77
2022/01/25 16:34:47;;;;;;;83.53;31.08;;;;;;;;;;5054708;28;20369;-77
2022/01/25 16:37:13;;;;;;;97.35;35.67;;;;;;;;;;5054907;28;20048;-77
2022/01/25 16:39:39;;;;;;;92.43;32.92;;;;;;;;;;5070999;28;20488;-77
2022/01/25 16:42:06;;;;;;;98.07;36.88;;;;;;;;;;5072321;28;20481;-77